Time;durP1;ratioP1;P1;durP2;ratioP2;P2;SDS_P1;SDS_P2;PMS_P1;PMS_P2;Temp;Humidity;BMP_temperature;BMP_pressure;BME280_temperature;BME280_humidity;BME280_pressure;Samples;Min_cycle;Max_cycle;Signal;HPM_P1;HPM_P2
2022/03/11 00:01:48;;;;;;;6.68;4.20;;;6.60;80.20;;;;;;5035019;28;20064;-74
2022/03/11 00:04:14;;;;;;;7.82;4.78;;;6.50;80.60;;;;;;5035307;28;20124;-75
2022/03/11 00:06:58;;;;;;;8.50;4.63;;;6.50;80.70;;;;;;5035162;28;20095;-74
2022/03/11 00:09:23;;;;;;;7.18;4.70;;;6.50;81.00;;;;;;5035293;28;20049;-74
2022/03/11 00:11:49;;;;;;;7.30;4.57;;;6.40;81.30;;;;;;5034043;28;20136;-74
2022/03/11 00:14:15;;;;;;;7.72;4.57;;;6.40;81.60;;;;;;5034509;28;20115;-74
2022/03/11 00:16:41;;;;;;;7.85;4.88;;;6.40;81.80;;;;;;5035660;28;20053;-74
2022/03/11 00:19:07;;;;;;;8.68;4.93;;;6.40;82.10;;;;;;5035073;28;20052;-74
2022/03/11 00:21:33;;;;;;;9.43;5.00;;;6.30;82.50;;;;;;5035359;28;20085;-74
2022/03/11 00:23:58;;;;;;;6.75;4.60;;;6.30;82.70;;;;;;5033607;28;20057;-74
2022/03/11 00:26:24;;;;;;;10.38;5.22;;;6.30;83.10;;;;;;5035041;28;20132;-74
2022/03/11 00:28:50;;;;;;;8.65;5.20;;;6.30;83.50;;;;;;5034929;28;20045;-74
2022/03/11 00:31:16;;;;;;;9.30;5.78;;;6.30;83.60;;;;;;5035373;28;20470;-74
2022/03/11 00:33:43;;;;;;;7.95;5.53;;;6.30;83.90;;;;;;5034866;28;20074;-74
2022/03/11 00:36:08;;;;;;;8.18;5.22;;;6.20;84.20;;;;;;5017322;28;20052;-74
2022/03/11 00:38:34;;;;;;;9.27;5.25;;;6.20;84.50;;;;;;5034779;28;20049;-74
2022/03/11 00:41:00;;;;;;;8.70;5.50;;;6.20;84.60;;;;;;5034495;28;20136;-75
2022/03/11 00:43:26;;;;;;;10.38;6.30;;;6.20;84.90;;;;;;5034527;28;20128;-75
2022/03/11 00:45:53;;;;;;;8.40;5.68;;;6.10;85.10;;;;;;5033549;28;20445;-74
2022/03/11 00:48:20;;;;;;;7.35;5.25;;;6.10;85.50;;;;;;5017123;28;20041;-74
2022/03/11 00:50:46;;;;;;;10.82;6.13;;;6.10;85.80;;;;;;5034187;28;20516;-75
2022/03/11 00:53:12;;;;;;;10.75;5.97;;;6.10;86.20;;;;;;5034531;28;20116;-74
2022/03/11 00:55:38;;;;;;;9.95;5.80;;;6.10;86.50;;;;;;5033278;28;20533;-74
2022/03/11 00:58:04;;;;;;;10.82;6.72;;;6.00;86.70;;;;;;5034666;28;20482;-74
2022/03/11 01:00:29;;;;;;;10.38;6.45;;;6.00;87.00;;;;;;5016888;28;20144;-76
2022/03/11 01:02:55;;;;;;;11.80;6.75;;;6.00;87.20;;;;;;5034502;28;20041;-74
2022/03/11 01:05:24;;;;;;;11.10;6.22;;;5.90;87.80;;;;;;5034555;28;20049;-75
2022/03/11 01:07:51;;;;;;;10.05;6.60;;;5.90;87.80;;;;;;5033435;28;20042;-75
2022/03/11 01:10:17;;;;;;;8.35;6.00;;;5.90;88.20;;;;;;5034730;28;20049;-75
2022/03/11 01:12:43;;;;;;;12.50;7.07;;;5.80;88.50;;;;;;5034203;28;20451;-75
2022/03/11 01:15:09;;;;;;;13.02;7.18;;;5.90;88.70;;;;;;5034032;28;20124;-74
2022/03/11 01:17:35;;;;;;;12.73;7.15;;;5.80;89.10;;;;;;5034321;28;20076;-75
2022/03/11 01:20:01;;;;;;;11.65;7.55;;;5.90;89.40;;;;;;5032845;28;20045;-74
2022/03/11 01:22:27;;;;;;;11.77;7.30;;;5.80;89.70;;;;;;5034162;28;20053;-75
2022/03/11 01:24:52;;;;;;;11.15;7.20;;;5.70;90.00;;;;;;5034819;28;20458;-75
2022/03/11 01:27:18;;;;;;;14.02;8.50;;;5.90;90.20;;;;;;5032961;28;20053;-74
2022/03/11 01:29:44;;;;;;;12.25;8.23;;;5.70;90.30;;;;;;5032736;28;20484;-75
2022/03/11 01:32:10;;;;;;;11.20;7.45;;;5.70;90.40;;;;;;5032779;28;20080;-74
2022/03/11 01:34:35;;;;;;;13.18;8.38;;;5.70;90.50;;;;;;5033827;28;20041;-75
2022/03/11 01:37:01;;;;;;;14.85;8.90;;;5.80;90.60;;;;;;5033739;28;20045;-74
2022/03/11 01:39:27;;;;;;;14.40;8.50;;;5.70;90.70;;;;;;5033359;28;20045;-75
2022/03/11 01:41:52;;;;;;;13.27;8.35;;;5.70;90.80;;;;;;5032710;28;20088;-75
2022/03/11 01:44:18;;;;;;;17.02;9.25;;;5.70;90.90;;;;;;5015874;28;20038;-75
2022/03/11 01:46:44;;;;;;;14.80;9.25;;;5.60;90.90;;;;;;5033531;28;20133;-75
2022/03/11 01:49:11;;;;;;;15.23;8.65;;;5.70;91.10;;;;;;5033623;28;20049;-75
2022/03/11 01:51:42;;;;;;;12.77;9.00;;;5.60;91.20;;;;;;5032411;28;20053;-74
2022/03/11 01:54:08;;;;;;;15.18;9.02;;;5.60;91.40;;;;;;5033557;28;20041;-74
2022/03/11 01:56:35;;;;;;;13.70;8.88;;;5.60;91.40;;;;;;5034049;28;20049;-75
2022/03/11 01:59:01;;;;;;;14.95;8.85;;;5.50;91.40;;;;;;5033506;28;20512;-74
2022/03/11 02:01:27;;;;;;;15.30;8.93;;;5.50;91.50;;;;;;5016075;28;20041;-74
2022/03/11 02:03:52;;;;;;;14.50;9.23;;;5.50;91.60;;;;;;5033398;28;20060;-75
2022/03/11 02:06:19;;;;;;;17.17;10.10;;;5.70;91.80;;;;;;5033461;28;20045;-75
2022/03/11 02:08:45;;;;;;;14.30;9.55;;;5.50;91.90;;;;;;5032828;28;20049;-75
2022/03/11 02:11:11;;;;;;;15.73;10.25;;;5.60;92.00;;;;;;5033919;28;20375;-75
2022/03/11 02:13:52;;;;;;;14.65;9.13;;;5.50;92.10;;;;;;5033184;28;20116;-75
2022/03/11 02:16:21;;;;;;;16.17;10.35;;;5.40;92.20;;;;;;5033541;28;20429;-74
2022/03/11 02:18:47;;;;;;;14.95;10.10;;;5.70;92.30;;;;;;5036105;28;20057;-74
2022/03/11 02:21:15;;;;;;;12.73;9.23;;;5.40;92.40;;;;;;5036135;28;20057;-75
2022/03/11 02:23:48;;;;;;;15.65;9.85;;;5.80;92.50;;;;;;5037016;28;20056;-74
2022/03/11 02:26:14;;;;;;;16.83;10.32;;;5.40;92.50;;;;;;5036755;28;20127;-74
2022/03/11 02:28:40;;;;;;;15.20;10.63;;;5.30;92.60;;;;;;5038005;28;20047;-74
2022/03/11 02:31:06;;;;;;;15.30;10.07;;;5.50;92.60;;;;;;5035980;28;20045;-74
2022/03/11 02:33:32;;;;;;;17.05;10.57;;;5.30;92.70;;;;;;5037667;28;20513;-75
2022/03/11 02:35:59;;;;;;;15.82;10.73;;;5.50;92.80;;;;;;5036357;28;20049;-74
2022/03/11 02:38:25;;;;;;;16.83;10.32;;;5.30;92.80;;;;;;5035980;28;20103;-74
2022/03/11 02:40:51;;;;;;;17.98;11.68;;;5.30;92.80;;;;;;5036329;28;20049;-75
2022/03/11 02:43:17;;;;;;;16.63;10.68;;;5.20;92.80;;;;;;5036875;28;20440;-74
2022/03/11 02:45:43;;;;;;;16.60;11.38;;;5.20;93.00;;;;;;5036757;28;20053;-74
2022/03/11 02:48:09;;;;;;;18.50;11.68;;;5.10;93.10;;;;;;5036896;28;20048;-75
2022/03/11 02:50:34;;;;;;;17.23;10.95;;;5.40;93.30;;;;;;5036787;28;20375;-74
2022/03/11 02:53:00;;;;;;;18.23;11.32;;;5.10;93.20;;;;;;5037561;28;20046;-74
2022/03/11 02:55:26;;;;;;;20.90;11.80;;;5.10;93.30;;;;;;5035730;28;20469;-74
2022/03/11 02:57:51;;;;;;;15.65;10.85;;;5.10;93.70;;;;;;5035484;28;20053;-74
2022/03/11 03:00:18;;;;;;;18.58;12.30;;;5.10;93.50;;;;;;5037119;28;20045;-74
2022/03/11 03:02:43;;;;;;;18.55;12.20;;;5.00;93.50;;;;;;5035261;28;20381;-74
2022/03/11 03:05:09;;;;;;;17.70;11.10;;;5.30;93.60;;;;;;5035581;28;20045;-74
2022/03/11 03:07:35;;;;;;;16.13;11.02;;;5.00;93.70;;;;;;5035505;28;20056;-75
2022/03/11 03:10:02;;;;;;;17.98;11.45;;;5.20;93.70;;;;;;5036214;28;20442;-75
2022/03/11 03:12:27;;;;;;;16.30;11.23;;;5.50;93.90;;;;;;5036406;28;20092;-74
2022/03/11 03:14:53;;;;;;;16.67;11.20;;;4.90;93.70;;;;;;5035157;28;20505;-74
2022/03/11 03:17:21;;;;;;;17.77;11.98;;;5.00;93.90;;;;;;5036995;28;20080;-74
2022/03/11 03:19:47;;;;;;;17.15;11.20;;;4.50;93.70;;;;;;5036498;28;20046;-74
2022/03/11 03:22:13;;;;;;;16.45;12.15;;;4.80;93.80;;;;;;5035409;28;20485;-74
2022/03/11 03:24:39;;;;;;;15.40;10.55;;;4.60;93.80;;;;;;5035472;28;20132;-74
2022/03/11 03:27:05;;;;;;;18.85;12.02;;;4.90;94.10;;;;;;5036395;28;20557;-74
2022/03/11 03:29:31;;;;;;;19.50;12.02;;;4.70;94.10;;;;;;5034149;28;20496;-74
2022/03/11 03:31:58;;;;;;;17.50;12.23;;;5.40;94.30;;;;;;5036592;28;20049;-74
2022/03/11 03:34:31;;;;;;;17.27;11.45;;;4.70;94.20;;;;;;5034784;28;20054;-74
2022/03/11 03:36:59;;;;;;;19.38;12.40;;;4.70;94.20;;;;;;5035993;28;20099;-74
2022/03/11 03:39:25;;;;;;;17.05;11.23;;;4.60;94.20;;;;;;5034697;28;20075;-74
2022/03/11 03:41:57;;;;;;;19.33;11.68;;;4.60;94.30;;;;;;5036208;28;20411;-74
2022/03/11 03:44:22;;;;;;;17.55;11.38;;;4.60;94.40;;;;;;5035274;28;20115;-74
2022/03/11 03:46:49;;;;;;;16.13;10.80;;;4.40;94.40;;;;;;5035646;28;20430;-74
2022/03/11 03:49:15;;;;;;;15.95;11.27;;;4.60;94.40;;;;;;5034706;28;20513;-74
2022/03/11 03:51:41;;;;;;;17.95;11.38;;;5.00;94.60;;;;;;5035678;28;20045;-74
2022/03/11 03:54:11;;;;;;;18.23;11.88;;;4.70;94.60;;;;;;5035565;28;20041;-74
2022/03/11 03:56:38;;;;;;;15.85;11.30;;;4.50;94.50;;;;;;5035630;28;20111;-74
2022/03/11 03:59:05;;;;;;;19.67;11.38;;;4.60;94.60;;;;;;5034524;28;20050;-74
2022/03/11 04:01:36;;;;;;;15.55;11.75;;;4.60;94.60;;;;;;5035471;28;20080;-74
2022/03/11 04:04:03;;;;;;;18.05;10.82;;;4.50;94.60;;;;;;5017711;28;20045;-74
2022/03/11 04:06:29;;;;;;;17.90;11.63;;;4.40;94.70;;;;;;5017895;28;20050;-74
2022/03/11 04:08:56;;;;;;;17.40;10.93;;;4.30;94.80;;;;;;5035355;28;20049;-74
2022/03/11 04:11:26;;;;;;;20.05;12.07;;;4.40;94.90;;;;;;5034112;28;20050;-74
2022/03/11 04:13:53;;;;;;;17.77;12.10;;;4.30;94.80;;;;;;5035314;28;20053;-74
2022/03/11 04:16:19;;;;;;;18.73;11.38;;;4.30;94.90;;;;;;5001394;28;20072;-74
2022/03/11 04:18:46;;;;;;;17.23;11.38;;;4.30;94.90;;;;;;5034224;28;20053;-74
2022/03/11 04:21:13;;;;;;;18.30;11.48;;;4.40;94.90;;;;;;5035090;28;20056;-74
2022/03/11 04:23:40;;;;;;;18.25;11.95;;;4.60;95.10;;;;;;5034703;28;20164;-74
2022/03/11 04:26:06;;;;;;;18.33;10.60;;;4.60;95.10;;;;;;5033903;28;20474;-74
2022/03/11 04:28:31;;;;;;;17.05;11.00;;;4.20;95.00;;;;;;5033731;28;20106;-74
2022/03/11 04:30:57;;;;;;;16.88;11.32;;;4.60;95.10;;;;;;5034848;28;20045;-74
2022/03/11 04:33:23;;;;;;;18.25;10.90;;;4.20;95.00;;;;;;5034956;28;20124;-74
2022/03/11 04:35:48;;;;;;;19.10;11.98;;;4.10;95.10;;;;;;5033808;28;20128;-74
2022/03/11 04:38:14;;;;;;;18.45;11.30;;;4.10;95.10;;;;;;5017382;28;20052;-74
2022/03/11 04:40:40;;;;;;;19.13;11.48;;;4.20;95.20;;;;;;5033333;28;20500;-74
2022/03/11 04:43:06;;;;;;;18.60;12.18;;;4.50;95.40;;;;;;5032846;28;20042;-74
2022/03/11 04:45:31;;;;;;;18.35;11.07;;;4.10;95.40;;;;;;5035128;28;20124;-74
2022/03/11 04:47:57;;;;;;;19.85;11.68;;;4.00;95.30;;;;;;5035383;28;20048;-74
2022/03/11 04:50:23;;;;;;;16.80;11.35;;;4.20;95.40;;;;;;5033565;28;20057;-74
2022/03/11 04:52:49;;;;;;;18.10;11.13;;;4.20;95.50;;;;;;5034791;28;20120;-73
2022/03/11 04:55:16;;;;;;;18.80;11.85;;;4.10;95.50;;;;;;5034438;28;20049;-74
2022/03/11 04:57:42;;;;;;;18.08;11.20;;;4.30;95.50;;;;;;5034469;28;20057;-74
2022/03/11 05:00:09;;;;;;;16.42;10.65;;;3.90;95.50;;;;;;5034635;28;20392;-74
2022/03/11 05:02:35;;;;;;;16.67;11.35;;;3.90;95.50;;;;;;5034284;28;20045;-74
2022/03/11 05:05:08;;;;;;;18.25;11.65;;;4.60;95.70;;;;;;5034292;28;20395;-74
2022/03/11 05:07:34;;;;;;;18.48;11.38;;;3.90;95.60;;;;;;5034101;28;20089;-74
2022/03/11 05:10:01;;;;;;;21.45;11.82;;;3.90;95.70;;;;;;5034258;28;20111;-74
2022/03/11 05:12:27;;;;;;;17.70;11.20;;;3.90;95.70;;;;;;5033196;28;20053;-74
2022/03/11 05:14:53;;;;;;;20.60;12.05;;;3.80;95.70;;;;;;5034055;28;20056;-74
2022/03/11 05:17:19;;;;;;;17.33;11.38;;;3.80;95.70;;;;;;5034511;28;20049;-74
2022/03/11 05:19:45;;;;;;;18.05;11.00;;;4.10;95.80;;;;;;5000316;28;20147;-74
2022/03/11 05:22:11;;;;;;;18.77;11.80;;;3.70;95.70;;;;;;5033936;28;20045;-74
2022/03/11 05:24:38;;;;;;;16.75;10.98;;;4.50;96.00;;;;;;5033995;28;20117;-74
2022/03/11 05:27:05;;;;;;;16.27;10.73;;;3.90;95.90;;;;;;5033930;28;20187;-74
2022/03/11 05:29:33;;;;;;;18.90;11.55;;;3.60;95.80;;;;;;5032588;28;20051;-74
2022/03/11 05:31:59;;;;;;;19.45;12.43;;;3.80;95.80;;;;;;5033839;28;20049;-74
2022/03/11 05:34:25;;;;;;;18.65;11.27;;;3.60;95.80;;;;;;5033798;28;20052;-74
2022/03/11 05:36:51;;;;;;;20.05;11.13;;;3.90;96.00;;;;;;5034331;28;20041;-74
2022/03/11 05:39:16;;;;;;;15.05;10.63;;;3.90;96.30;;;;;;5032787;28;20049;-75
2022/03/11 05:41:42;;;;;;;17.83;10.98;;;4.10;96.00;;;;;;5032615;28;20500;-74
2022/03/11 05:44:08;;;;;;;16.48;10.98;;;3.80;96.00;;;;;;5033672;28;20529;-74
2022/03/11 05:46:34;;;;;;;18.15;10.75;;;3.90;96.00;;;;;;5034410;28;20500;-74
2022/03/11 05:48:59;;;;;;;19.27;11.75;;;3.50;95.90;;;;;;5032447;28;20045;-74
2022/03/11 05:51:25;;;;;;;18.83;10.80;;;3.50;95.90;;;;;;5033323;28;20092;-74
2022/03/11 05:53:51;;;;;;;18.27;11.35;;;3.50;96.00;;;;;;5015627;28;20045;-74
2022/03/11 05:56:17;;;;;;;19.92;11.73;;;3.80;96.00;;;;;;5034151;28;20132;-74
2022/03/11 05:58:42;;;;;;;18.60;11.13;;;3.50;96.10;;;;;;5032571;28;20123;-74
2022/03/11 06:01:08;;;;;;;16.48;10.60;;;3.90;96.00;;;;;;5033526;28;20370;-74
2022/03/11 06:03:34;;;;;;;16.40;11.68;;;4.30;96.10;;;;;;5033733;28;20041;-74
2022/03/11 06:06:00;;;;;;;19.15;12.02;;;3.40;95.90;;;;;;5032810;28;20383;-74
2022/03/11 06:08:25;;;;;;;17.98;10.77;;;3.30;95.90;;;;;;5016792;28;20386;-74
2022/03/11 06:10:51;;;;;;;17.95;11.15;;;3.40;96.00;;;;;;5033653;28;20045;-74
2022/03/11 06:13:17;;;;;;;18.13;11.27;;;3.40;96.00;;;;;;5033382;28;20041;-74
2022/03/11 06:15:43;;;;;;;16.90;10.52;;;3.40;96.00;;;;;;5033279;28;20099;-74
2022/03/11 06:18:12;;;;;;;15.88;10.48;;;4.00;96.20;;;;;;5032184;28;20081;-74
2022/03/11 06:20:38;;;;;;;18.77;11.05;;;3.40;96.10;;;;;;5032822;28;20049;-74
2022/03/11 06:23:04;;;;;;;19.10;11.52;;;3.30;96.10;;;;;;5033268;28;20459;-74
2022/03/11 06:25:30;;;;;;;16.13;10.73;;;3.40;96.10;;;;;;5031718;28;20049;-74
2022/03/11 06:27:56;;;;;;;17.27;11.07;;;3.30;96.10;;;;;;5032915;28;20072;-75
2022/03/11 06:30:22;;;;;;;18.33;11.43;;;4.10;96.30;;;;;;5033207;28;20045;-74
2022/03/11 06:32:49;;;;;;;15.43;10.18;;;3.30;96.30;;;;;;5031740;28;20045;-74
2022/03/11 06:35:15;;;;;;;15.93;10.70;;;3.30;96.20;;;;;;5032209;28;20504;-74
2022/03/11 06:37:43;;;;;;;16.15;10.68;;;3.50;96.20;;;;;;5032470;28;20038;-74
2022/03/11 06:40:10;;;;;;;18.95;10.63;;;3.30;96.10;;;;;;5031862;28;20095;-74
2022/03/11 06:42:38;;;;;;;16.27;9.82;;;3.30;96.10;;;;;;5033081;28;20473;-74
2022/03/11 06:45:05;;;;;;;19.10;10.15;;;3.40;96.10;;;;;;5033120;28;20095;-74
2022/03/11 06:47:31;;;;;;;15.82;8.95;;;3.30;96.00;;;;;;5033567;28;20049;-74
2022/03/11 06:49:57;;;;;;;15.48;10.05;;;3.40;96.00;;;;;;5033294;28;20064;-76
2022/03/11 06:52:22;;;;;;;16.00;10.43;;;3.40;95.80;;;;;;5031868;28;20557;-74
2022/03/11 06:54:48;;;;;;;17.77;9.65;;;3.40;95.70;;;;;;5033079;28;20045;-74
2022/03/11 06:57:16;;;;;;;16.77;10.73;;;3.50;95.70;;;;;;5032540;28;20102;-74
2022/03/11 06:59:44;;;;;;;15.32;9.93;;;3.40;95.50;;;;;;5033540;28;20167;-74
2022/03/11 07:02:09;;;;;;;18.48;11.38;;;4.00;95.60;;;;;;5033427;28;20053;-75
2022/03/11 07:04:35;;;;;;;20.38;10.77;;;3.50;95.40;;;;;;5033181;28;20091;-74
2022/03/11 07:07:01;;;;;;;16.45;9.70;;;3.50;95.60;;;;;;5036525;28;20049;-74
2022/03/11 07:09:26;;;;;;;20.08;10.60;;;3.60;95.20;;;;;;5035722;28;20052;-74
2022/03/11 07:11:57;;;;;;;18.65;10.60;;;4.10;95.20;;;;;;5036489;28;20057;-74
2022/03/11 07:14:24;;;;;;;19.35;10.90;;;3.90;95.20;;;;;;5036961;28;20045;-74
2022/03/11 07:16:52;;;;;;;15.32;9.93;;;4.00;95.20;;;;;;5036319;28;20111;-74
2022/03/11 07:19:19;;;;;;;16.63;10.32;;;3.60;95.10;;;;;;5036364;28;20053;-74
2022/03/11 07:21:45;;;;;;;15.70;9.80;;;3.60;95.00;;;;;;5035062;28;20611;-74
2022/03/11 07:24:10;;;;;;;16.73;10.10;;;3.60;95.00;;;;;;5018963;28;20052;-74
2022/03/11 07:26:36;;;;;;;15.57;9.77;;;3.70;95.00;;;;;;5036434;28;20128;-74
2022/03/11 07:29:02;;;;;;;18.23;9.32;;;4.20;95.00;;;;;;5036058;28;20452;-74
2022/03/11 07:31:28;;;;;;;17.15;9.88;;;4.10;95.00;;;;;;5036001;28;20128;-74
2022/03/11 07:33:58;;;;;;;16.67;10.00;;;3.80;94.80;;;;;;5036599;28;20052;-73
2022/03/11 07:36:24;;;;;;;16.83;10.70;;;3.70;94.60;;;;;;5036555;28;20131;-73
2022/03/11 07:38:50;;;;;;;14.95;9.30;;;4.10;94.50;;;;;;5034885;28;20052;-74
2022/03/11 07:41:17;;;;;;;16.15;9.48;;;3.90;94.50;;;;;;5034952;28;20052;-73
2022/03/11 07:43:46;;;;;;;14.88;9.95;;;3.90;94.40;;;;;;5034697;28;20116;-73
2022/03/11 07:46:13;;;;;;;17.13;9.80;;;4.30;94.50;;;;;;5035670;28;20049;-73
2022/03/11 07:48:39;;;;;;;17.25;10.00;;;4.50;94.40;;;;;;5035958;28;20432;-73
2022/03/11 07:51:06;;;;;;;18.77;10.45;;;4.10;94.40;;;;;;5001907;28;20041;-73
2022/03/11 07:53:32;;;;;;;16.73;10.43;;;4.20;94.10;;;;;;5034561;28;20057;-73
2022/03/11 07:55:58;;;;;;;16.88;9.52;;;4.10;94.00;;;;;;5035573;28;20056;-74
2022/03/11 07:58:24;;;;;;;18.15;10.27;;;4.20;93.80;;;;;;5035831;28;20580;-73
2022/03/11 08:00:50;;;;;;;17.85;10.32;;;4.30;93.60;;;;;;5017946;28;20177;-73
2022/03/11 08:03:17;;;;;;;18.35;10.10;;;4.20;93.40;;;;;;5034367;28;20049;-73
2022/03/11 08:05:43;;;;;;;15.68;8.70;;;4.50;93.50;;;;;;5034471;28;20151;-74
2022/03/11 08:08:09;;;;;;;15.65;8.75;;;4.50;93.30;;;;;;5036145;28;20370;-74
2022/03/11 08:10:38;;;;;;;15.93;9.85;;;4.50;93.00;;;;;;5034359;28;20132;-73
2022/03/11 08:13:06;;;;;;;16.63;10.75;;;4.50;92.90;;;;;;5035237;28;20127;-73
2022/03/11 08:15:33;;;;;;;16.83;9.65;;;4.70;93.00;;;;;;5034981;28;20049;-71
2022/03/11 08:17:59;;;;;;;14.90;9.27;;;4.60;92.80;;;;;;5034160;28;20045;-73
2022/03/11 08:20:25;;;;;;;15.55;9.40;;;4.70;92.80;;;;;;5034633;28;20041;-73
2022/03/11 08:22:51;;;;;;;15.88;9.00;;;4.70;92.60;;;;;;5035962;28;20041;-73
2022/03/11 08:25:18;;;;;;;17.20;10.40;;;4.80;92.50;;;;;;5017139;28;20416;-74
2022/03/11 08:27:44;;;;;;;16.10;9.55;;;4.80;92.40;;;;;;5034177;28;20056;-74
2022/03/11 08:30:12;;;;;;;18.15;10.30;;;4.90;92.30;;;;;;5035123;28;20049;-70
2022/03/11 08:32:39;;;;;;;17.55;9.93;;;5.00;92.00;;;;;;5035027;28;20042;-69
2022/03/11 08:35:06;;;;;;;14.57;9.25;;;5.00;91.80;;;;;;5017584;28;20553;-69
2022/03/11 08:37:33;;;;;;;16.23;9.57;;;5.10;91.60;;;;;;5034019;28;20088;-71
2022/03/11 08:39:59;;;;;;;16.00;9.35;;;5.20;91.40;;;;;;5034920;28;20060;-70
2022/03/11 08:42:25;;;;;;;17.13;10.13;;;5.20;91.20;;;;;;5033490;28;20486;-71
2022/03/11 08:44:51;;;;;;;15.80;9.32;;;5.20;91.00;;;;;;5035242;28;20045;-71
2022/03/11 08:47:17;;;;;;;18.75;9.23;;;5.30;90.80;;;;;;5034613;28;20042;-71
2022/03/11 08:49:43;;;;;;;14.85;9.07;;;5.50;90.40;;;;;;5033471;28;20474;-70
2022/03/11 08:52:10;;;;;;;15.88;8.38;;;5.40;90.10;;;;;;5016871;28;20405;-70
2022/03/11 08:54:36;;;;;;;17.77;10.60;;;5.50;90.00;;;;;;5033813;28;20061;-70
2022/03/11 08:57:03;;;;;;;16.00;9.77;;;5.70;90.00;;;;;;5034489;28;20045;-71
2022/03/11 08:59:29;;;;;;;15.40;8.82;;;5.60;89.80;;;;;;5034415;28;20449;-70
2022/03/11 09:01:55;;;;;;;20.77;9.60;;;5.60;89.40;;;;;;5034447;28;20042;-69
2022/03/11 09:04:21;;;;;;;18.05;10.02;;;5.70;89.50;;;;;;5033140;28;20041;-69
2022/03/11 09:06:47;;;;;;;15.55;9.40;;;5.70;88.80;;;;;;5034860;28;20041;-72
2022/03/11 09:09:13;;;;;;;16.13;9.80;;;5.80;88.20;;;;;;5000976;28;20052;-73
2022/03/11 09:11:39;;;;;;;16.20;9.73;;;5.90;87.90;;;;;;5034292;28;20421;-74
2022/03/11 09:14:07;;;;;;;16.02;9.45;;;5.90;86.40;;;;;;5032890;28;20048;-72
2022/03/11 09:16:33;;;;;;;15.07;9.27;;;5.90;86.00;;;;;;5034590;28;20045;-72
2022/03/11 09:18:59;;;;;;;16.92;9.82;;;5.90;85.20;;;;;;5033434;28;20045;-74
2022/03/11 09:21:25;;;;;;;15.50;8.95;;;6.00;84.40;;;;;;5033102;28;20500;-75
2022/03/11 09:23:51;;;;;;;15.70;9.25;;;6.00;84.20;;;;;;5034776;28;20132;-73
2022/03/11 09:26:17;;;;;;;15.25;9.32;;;6.10;83.60;;;;;;5032570;28;20492;-74
2022/03/11 09:28:42;;;;;;;15.35;8.75;;;6.10;83.40;;;;;;5033421;28;20136;-73
2022/03/11 09:31:08;;;;;;;16.75;8.93;;;6.20;83.30;;;;;;5033381;28;20377;-72
2022/03/11 09:33:38;;;;;;;13.93;8.85;;;6.40;82.90;;;;;;5034494;28;20136;-73
2022/03/11 09:36:05;;;;;;;13.05;8.60;;;6.20;82.80;;;;;;5033935;28;20132;-71
2022/03/11 09:38:32;;;;;;;16.85;9.45;;;6.20;82.70;;;;;;5016559;28;20053;-73
2022/03/11 09:41:00;;;;;;;16.25;8.95;;;6.30;82.70;;;;;;5016409;28;20115;-74
2022/03/11 09:43:27;;;;;;;15.50;9.43;;;6.40;82.50;;;;;;5033689;28;20050;-73
2022/03/11 09:45:53;;;;;;;12.63;8.15;;;6.40;81.60;;;;;;5016179;28;20049;-73
2022/03/11 09:48:19;;;;;;;14.68;8.20;;;6.50;80.70;;;;;;5034256;28;20056;-73
2022/03/11 09:50:45;;;;;;;15.85;9.45;;;6.50;80.40;;;;;;5033502;28;20128;-73
2022/03/11 09:53:12;;;;;;;14.20;8.55;;;6.50;79.40;;;;;;5032881;28;20128;-73
2022/03/11 09:55:41;;;;;;;15.40;9.43;;;6.60;78.70;;;;;;5034423;28;20370;-73
2022/03/11 09:58:08;;;;;;;15.68;9.48;;;6.60;78.20;;;;;;5034122;28;20061;-73
2022/03/11 10:00:34;;;;;;;14.52;9.50;;;6.80;78.50;;;;;;5032623;28;20128;-73
2022/03/11 10:02:59;;;;;;;13.13;7.80;;;6.60;78.50;;;;;;5032332;28;20429;-73
2022/03/11 10:05:45;;;;;;;14.52;8.27;;;6.70;78.90;;;;;;5032413;28;20490;-73
2022/03/11 10:08:11;;;;;;;16.02;8.30;;;6.80;78.80;;;;;;5034379;28;20079;-73
2022/03/11 10:10:36;;;;;;;13.75;7.95;;;6.90;78.50;;;;;;5032290;28;20056;-73
2022/03/11 10:13:03;;;;;;;13.88;8.63;;;6.80;77.20;;;;;;5015897;28;20042;-74
2022/03/11 10:15:29;;;;;;;13.13;8.77;;;6.90;76.70;;;;;;5033172;28;20045;-72
2022/03/11 10:17:56;;;;;;;14.77;7.55;;;7.00;76.90;;;;;;5031220;28;20111;-72
2022/03/11 10:20:22;;;;;;;14.45;8.65;;;7.00;76.00;;;;;;5031556;28;20055;-72
2022/03/11 10:22:48;;;;;;;11.18;8.10;;;7.00;76.20;;;;;;5031294;28;20042;-72
2022/03/11 10:25:16;;;;;;;13.15;7.35;;;7.00;76.70;;;;;;5032661;28;20072;-73
2022/03/11 10:28:03;;;;;;;11.93;8.05;;;6.70;76.30;;;;;;5031279;28;20128;-72
2022/03/11 10:30:38;;;;;;;12.90;7.90;;;7.20;75.90;;;;;;5031569;28;20052;-71
2022/03/11 10:33:06;;;;;;;12.02;8.15;;;7.20;75.50;;;;;;5031858;28;20140;-71
2022/03/11 10:35:37;;;;;;;16.05;8.07;;;7.30;75.10;;;;;;5032498;28;20045;-72
2022/03/11 10:38:09;;;;;;;16.90;7.63;;;7.30;74.90;;;;;;5031799;28;20096;-72
2022/03/11 10:40:40;;;;;;;14.30;8.38;;;7.40;74.60;;;;;;5035917;28;20069;-71
2022/03/11 10:43:09;;;;;;;11.23;7.63;;;7.40;73.70;;;;;;5035212;28;20037;-72
2022/03/11 10:45:55;;;;;;;13.48;8.05;;;7.40;73.80;;;;;;5036666;28;20049;-72
2022/03/11 10:48:44;;;;;;;11.93;7.72;;;7.50;73.90;;;;;;5036530;28;20124;-73
2022/03/11 10:51:24;;;;;;;17.10;8.23;;;7.50;73.50;;;;;;5018419;28;20092;-72
2022/03/11 10:53:50;;;;;;;12.52;7.60;;;7.60;73.40;;;;;;5035042;28;20064;-70
2022/03/11 10:56:26;;;;;;;11.88;7.63;;;7.70;73.40;;;;;;5036088;28;20050;-72
2022/03/11 10:58:52;;;;;;;11.57;7.50;;;7.70;72.20;;;;;;5035886;28;20143;-72
2022/03/11 11:01:38;;;;;;;11.10;7.40;;;7.80;71.70;;;;;;5034883;28;20050;-71
2022/03/11 11:04:07;;;;;;;11.55;7.13;;;7.80;71.60;;;;;;5002460;28;20056;-72
2022/03/11 11:06:33;;;;;;;12.65;8.20;;;7.80;70.70;;;;;;5018357;28;20490;-71
2022/03/11 11:09:00;;;;;;;12.30;7.90;;;7.90;70.40;;;;;;5035404;28;20053;-72
2022/03/11 11:11:26;;;;;;;12.18;7.10;;;8.00;70.50;;;;;;5035208;28;20148;-72
2022/03/11 11:13:51;;;;;;;11.93;6.88;;;7.90;69.70;;;;;;5036057;28;20534;-72
2022/03/11 11:16:24;;;;;;;12.18;7.72;;;8.00;69.10;;;;;;5034232;28;20049;-72
2022/03/11 11:18:51;;;;;;;12.80;8.68;;;8.00;68.90;;;;;;5035388;28;20049;-73
2022/03/11 11:21:24;;;;;;;10.90;7.60;;;8.10;69.20;;;;;;5018444;28;20052;-73
2022/03/11 11:23:59;;;;;;;12.43;8.13;;;8.10;69.50;;;;;;5034976;28;20045;-72
2022/03/11 11:26:26;;;;;;;13.30;7.50;;;9.30;69.70;;;;;;5036164;28;20175;-73
2022/03/11 11:28:57;;;;;;;15.30;7.68;;;8.20;68.80;;;;;;5034310;28;20402;-72
2022/03/11 11:31:24;;;;;;;14.55;7.72;;;8.30;68.60;;;;;;5035428;28;20146;-73
2022/03/11 11:33:51;;;;;;;12.23;7.60;;;8.30;68.20;;;;;;5034225;28;20045;-72
2022/03/11 11:36:49;;;;;;;15.27;7.97;;;8.40;68.80;;;;;;5034192;28;20053;-74
2022/03/11 11:39:14;;;;;;;9.73;6.90;;;8.40;68.60;;;;;;4991322;28;20133;-74
2022/03/11 11:41:40;;;;;;;14.15;7.45;;;8.50;68.10;;;;;;5035073;28;20189;-73
2022/03/11 11:44:08;;;;;;;11.55;6.88;;;8.50;67.90;;;;;;5034013;28;20128;-74
2022/03/11 11:46:37;;;;;;;13.75;7.68;;;8.60;68.00;;;;;;5034397;28;20049;-72
2022/03/11 11:49:16;;;;;;;11.77;7.60;;;8.60;67.90;;;;;;5034439;28;20054;-73
2022/03/11 11:51:41;;;;;;;12.27;7.43;;;8.70;67.40;;;;;;5034048;28;20056;-73
2022/03/11 11:54:08;;;;;;;11.90;7.30;;;8.70;67.00;;;;;;5034458;28;20367;-72
2022/03/11 11:56:35;;;;;;;12.02;7.32;;;8.70;66.40;;;;;;5035446;28;20429;-73
2022/03/11 11:59:04;;;;;;;12.18;7.22;;;8.80;65.60;;;;;;5034105;28;20072;-71
2022/03/11 12:01:39;;;;;;;12.68;7.15;;;8.80;65.50;;;;;;5034653;28;20538;-72
2022/03/11 12:04:33;;;;;;;10.50;6.75;;;8.90;65.50;;;;;;5034096;28;20126;-74
2022/03/11 12:07:04;;;;;;;14.27;7.35;;;8.90;65.50;;;;;;5034157;28;20390;-73
2022/03/11 12:09:39;;;;;;;10.68;6.50;;;8.90;65.10;;;;;;5034833;28;20111;-72
2022/03/11 12:12:50;;;;;;;11.85;7.38;;;9.00;65.30;;;;;;5034531;28;20060;-73
2022/03/11 12:15:18;;;;;;;12.55;6.80;;;9.10;65.10;;;;;;5010285;28;20064;-72
2022/03/11 12:17:48;;;;;;;11.50;7.22;;;9.20;64.80;;;;;;5034066;28;20053;-72
2022/03/11 12:20:26;;;;;;;10.43;7.07;;;9.20;64.80;;;;;;5033438;28;20454;-73
2022/03/11 12:22:55;;;;;;;11.35;7.10;;;9.30;64.80;;;;;;5033468;28;20045;-73
2022/03/11 12:25:27;;;;;;;10.68;6.30;;;9.30;64.20;;;;;;5034904;28;20064;-72
2022/03/11 12:28:27;;;;;;;10.60;7.27;;;9.30;63.40;;;;;;5035541;28;20251;-73
2022/03/11 12:31:04;;;;;;;14.77;7.40;;;9.40;63.40;;;;;;5035071;28;20292;-72
2022/03/11 12:33:34;;;;;;;11.23;7.03;;;9.40;63.20;;;;;;5034993;28;20120;-73
2022/03/11 12:36:01;;;;;;;9.98;6.68;;;9.50;63.10;;;;;;5035513;28;20061;-72
2022/03/11 12:38:31;;;;;;;10.45;7.07;;;9.50;62.00;;;;;;5034867;28;20045;-73
2022/03/11 12:41:02;;;;;;;12.68;7.03;;;9.60;62.10;;;;;;5033623;28;20124;-72
2022/03/11 12:43:29;;;;;;;12.43;6.75;;;9.60;62.20;;;;;;5033615;28;20037;-72
2022/03/11 12:45:57;;;;;;;11.18;6.55;;;9.60;61.90;;;;;;5034452;28;20386;-73